Time,TemperatureF,DewpointF,PressureIn,WindDirection,WindDirectionDegrees,WindSpeedMPH,WindSpeedGustMPH,Humidity,HourlyPrecipIn,Conditions,Clouds,dailyrainin,SoftwareType,DateUTC
2013-12-12 00:23:00,20.0,18.0,30.24,North,0,9.0,18.0,91,0.00,,,0.00,,2013-12-12 05:23:00,
2013-12-12 00:53:00,20.0,18.0,30.24,North,0,6.0,15.0,91,0.00,,,0.00,,2013-12-12 05:53:00,
2013-12-12 01:22:00,20.0,18.0,30.25,North,0,4.0,10.0,91,0.00,,,0.00,,2013-12-12 06:22:00,
2013-12-12 01:53:00,19.0,16.0,30.26,North,0,1.0,10.0,89,0.00,,,0.00,,2013-12-12 06:53:00,
2013-12-12 02:22:00,18.0,15.0,30.28,North,0,2.0,8.0,88,0.00,,,0.00,,2013-12-12 07:22:00,
2013-12-12 02:42:00,17.0,14.0,30.28,North,0,2.0,10.0,88,0.00,,,0.00,,2013-12-12 07:42:00,
2013-12-12 02:52:00,17.0,14.0,30.29,North,0,3.0,9.0,88,0.00,,,0.00,,2013-12-12 07:52:00,
2013-12-12 03:22:00,17.0,14.0,30.30,North,0,1.0,8.0,86,0.00,,,0.00,,2013-12-12 08:22:00,
2013-12-12 03:53:00,16.0,12.0,30.30,North,0,2.0,10.0,84,0.00,,,0.00,,2013-12-12 08:53:00,
2013-12-12 04:22:00,15.0,9.0,30.30,North,0,2.0,7.0,78,0.00,,,0.00,,2013-12-12 09:22:00,
2013-12-12 04:43:00,15.0,9.0,30.30,North,0,2.0,6.0,78,0.00,,,0.00,,2013-12-12 09:43:00,
2013-12-12 04:54:00,15.0,9.0,30.30,North,0,1.0,7.0,77,0.00,,,0.00,,2013-12-12 09:54:00,
2013-12-12 05:23:00,12.0,6.0,30.30,North,0,0.0,3.0,78,0.00,,,0.00,,2013-12-12 10:23:00,
2013-12-12 05:43:00,12.0,7.0,30.30,North,0,0.0,5.0,80,0.00,,,0.00,,2013-12-12 10:43:00,
2013-12-12 05:53:00,11.0,7.0,30.31,North,0,0.0,7.0,82,0.00,,,0.00,,2013-12-12 10:53:00,
2013-12-12 06:23:00,9.0,6.0,30.32,North,0,0.0,0.0,86,0.00,,,0.00,,2013-12-12 11:23:00,
2013-12-12 06:53:00,9.0,6.0,30.33,North,0,0.0,0.0,88,0.00,,,0.00,,2013-12-12 11:53:00,
2013-12-12 07:22:00,9.0,6.0,30.33,North,0,0.0,0.0,88,0.00,,,0.00,,2013-12-12 12:22:00,
2013-12-12 07:42:00,8.0,5.0,30.33,North,0,0.0,0.0,87,0.00,,,0.00,,2013-12-12 12:42:00,
2013-12-12 07:52:00,8.0,5.0,30.34,North,0,0.0,0.0,88,0.00,,,0.00,,2013-12-12 12:52:00,
2013-12-12 08:12:00,8.0,5.0,30.34,North,0,0.0,0.0,88,0.00,,,0.00,,2013-12-12 13:12:00,
2013-12-12 08:22:00,8.0,5.0,30.34,North,0,0.0,0.0,88,0.00,,,0.00,,2013-12-12 13:22:00,
2013-12-12 08:32:00,8.0,5.0,30.34,North,0,0.0,0.0,88,0.00,,,0.00,,2013-12-12 13:32:00,
2013-12-12 08:42:00,8.0,5.0,30.34,North,0,0.0,0.0,88,0.00,,,0.00,,2013-12-12 13:42:00,
2013-12-12 12:23:00,21.0,14.0,30.25,North,0,7.0,15.0,73,0.00,,,0.00,,2013-12-12 17:23:00,
2013-12-12 12:53:00,21.0,11.0,30.23,North,0,9.0,23.0,66,0.00,,,0.00,,2013-12-12 17:53:00,
2013-12-12 13:22:00,22.0,12.0,30.23,North,0,12.0,23.0,64,0.00,,,0.00,,2013-12-12 18:22:00,
2013-12-12 13:52:00,22.0,12.0,30.22,North,0,9.0,25.0,65,0.00,,,0.00,,2013-12-12 18:52:00,
2013-12-12 14:21:00,23.0,12.0,30.21,North,0,11.0,22.0,62,0.00,,,0.00,,2013-12-12 19:21:00,
2013-12-12 14:42:00,23.0,12.0,30.20,North,0,7.0,23.0,62,0.00,,,0.00,,2013-12-12 19:42:00,
2013-12-12 14:52:00,23.0,11.0,30.19,North,0,10.0,20.0,60,0.00,,,0.00,,2013-12-12 19:52:00,
2013-12-12 15:22:00,22.0,11.0,30.19,North,0,9.0,16.0,62,0.00,,,0.00,,2013-12-12 20:22:00,
2013-12-12 15:52:00,21.0,12.0,30.19,North,0,5.0,15.0,67,0.00,,,0.00,,2013-12-12 20:52:00,
2013-12-12 16:22:00,21.0,11.0,30.18,North,0,5.0,16.0,66,0.00,,,0.00,,2013-12-12 21:22:00,
2013-12-12 16:53:00,20.0,12.0,30.18,North,0,2.0,8.0,70,0.00,,,0.00,,2013-12-12 21:53:00,
2013-12-12 17:23:00,20.0,12.0,30.17,North,0,2.0,10.0,72,0.00,,,0.00,,2013-12-12 22:23:00,
2013-12-12 17:53:00,20.0,12.0,30.16,North,0,0.0,5.0,72,0.00,,,0.00,,2013-12-12 22:53:00,
2013-12-12 18:22:00,19.0,12.0,30.16,North,0,1.0,3.0,74,0.00,,,0.00,,2013-12-12 23:22:00,
2013-12-12 18:53:00,19.0,12.0,30.15,North,0,4.0,9.0,74,0.00,,,0.00,,2013-12-12 23:53:00,
2013-12-12 19:22:00,18.0,11.0,30.14,North,0,0.0,3.0,74,0.00,,,0.00,,2013-12-13 00:22:00,
2013-12-12 19:53:00,17.0,12.0,30.13,North,0,0.0,0.0,79,0.00,,,0.00,,2013-12-13 00:53:00,
2013-12-12 20:22:00,17.0,12.0,30.12,North,0,0.0,0.0,79,0.00,,,0.00,,2013-12-13 01:22:00,
2013-12-12 20:53:00,16.0,12.0,30.10,North,0,2.0,3.0,83,0.00,,,0.00,,2013-12-13 01:53:00,
2013-12-12 21:22:00,19.0,12.0,30.09,North,0,5.0,12.0,74,0.00,,,0.00,,2013-12-13 02:22:00,
2013-12-12 21:52:00,21.0,13.0,30.07,North,0,5.0,24.0,70,0.00,,,0.00,,2013-12-13 02:52:00,
2013-12-12 22:22:00,21.0,13.0,30.06,North,0,6.0,21.0,71,0.00,,,0.00,,2013-12-13 03:22:00,
2013-12-12 22:53:00,20.0,13.0,30.05,North,0,8.0,18.0,75,0.00,,,0.00,,2013-12-13 03:53:00,
2013-12-12 23:22:00,21.0,15.0,30.04,North,0,10.0,18.0,76,0.00,,,0.00,,2013-12-13 04:22:00,
2013-12-12 23:53:00,21.0,16.0,30.02,North,0,8.0,23.0,79,0.00,,,0.00,,2013-12-13 04:53:00,